sensor_id;sensor_type;location;lat;lon;timestamp;temperature;humidity
63537;DHT22;49686;51.880;5.632;2023-02-22T00:00:41;4.40;99.90
63537;DHT22;49686;51.880;5.632;2023-02-22T00:03:14;4.40;99.90
63537;DHT22;49686;51.880;5.632;2023-02-22T00:05:42;4.40;99.90
63537;DHT22;49686;51.880;5.632;2023-02-22T00:08:10;4.30;99.90
63537;DHT22;49686;51.880;5.632;2023-02-22T00:10:37;4.40;99.90
63537;DHT22;49686;51.880;5.632;2023-02-22T00:13:06;4.30;99.90
63537;DHT22;49686;51.880;5.632;2023-02-22T00:15:34;4.30;99.90
63537;DHT22;49686;51.880;5.632;2023-02-22T00:18:03;4.30;99.90
63537;DHT22;49686;51.880;5.632;2023-02-22T00:20:30;4.30;99.90
63537;DHT22;49686;51.880;5.632;2023-02-22T00:22:56;4.30;99.90
63537;DHT22;49686;51.880;5.632;2023-02-22T00:25:24;4.30;99.90
63537;DHT22;49686;51.880;5.632;2023-02-22T00:27:51;4.20;99.90
63537;DHT22;49686;51.880;5.632;2023-02-22T00:30:21;4.20;99.90
63537;DHT22;49686;51.880;5.632;2023-02-22T00:32:49;4.20;99.90
63537;DHT22;49686;51.880;5.632;2023-02-22T00:35:17;4.20;99.90
63537;DHT22;49686;51.880;5.632;2023-02-22T00:37:46;4.10;99.90
63537;DHT22;49686;51.880;5.632;2023-02-22T00:40:15;4.00;99.90
63537;DHT22;49686;51.880;5.632;2023-02-22T00:42:43;4.00;99.90
63537;DHT22;49686;51.880;5.632;2023-02-22T00:45:09;4.00;99.90
63537;DHT22;49686;51.880;5.632;2023-02-22T00:47:37;4.00;99.90
63537;DHT22;49686;51.880;5.632;2023-02-22T00:50:05;4.00;99.90
63537;DHT22;49686;51.880;5.632;2023-02-22T00:52:31;4.00;99.90
63537;DHT22;49686;51.880;5.632;2023-02-22T00:54:58;4.00;99.90
63537;DHT22;49686;51.880;5.632;2023-02-22T00:57:25;4.00;99.90
63537;DHT22;49686;51.880;5.632;2023-02-22T00:59:52;4.00;99.90
63537;DHT22;49686;51.880;5.632;2023-02-22T01:02:19;3.90;99.90
63537;DHT22;49686;51.880;5.632;2023-02-22T01:04:47;4.00;99.90
63537;DHT22;49686;51.880;5.632;2023-02-22T01:07:14;3.90;99.90
63537;DHT22;49686;51.880;5.632;2023-02-22T01:09:41;3.90;99.90
63537;DHT22;49686;51.880;5.632;2023-02-22T01:12:07;3.90;99.90
63537;DHT22;49686;51.880;5.632;2023-02-22T01:14:34;3.90;99.90
63537;DHT22;49686;51.880;5.632;2023-02-22T01:17:01;3.90;99.90
63537;DHT22;49686;51.880;5.632;2023-02-22T01:19:28;3.90;99.90
63537;DHT22;49686;51.880;5.632;2023-02-22T01:21:56;3.90;99.90
63537;DHT22;49686;51.880;5.632;2023-02-22T01:24:24;3.90;99.90
63537;DHT22;49686;51.880;5.632;2023-02-22T01:26:51;3.90;99.90
63537;DHT22;49686;51.880;5.632;2023-02-22T01:29:18;3.80;99.90
63537;DHT22;49686;51.880;5.632;2023-02-22T01:31:51;3.90;99.90
63537;DHT22;49686;51.880;5.632;2023-02-22T01:34:18;3.90;99.90
63537;DHT22;49686;51.880;5.632;2023-02-22T01:36:45;3.90;99.90
63537;DHT22;49686;51.880;5.632;2023-02-22T01:39:13;3.80;99.90
63537;DHT22;49686;51.880;5.632;2023-02-22T01:41:40;3.80;99.90
63537;DHT22;49686;51.880;5.632;2023-02-22T01:44:18;3.80;99.90
63537;DHT22;49686;51.880;5.632;2023-02-22T01:46:45;3.80;99.90
63537;DHT22;49686;51.880;5.632;2023-02-22T01:49:13;3.80;99.90
63537;DHT22;49686;51.880;5.632;2023-02-22T01:51:43;3.80;99.90
63537;DHT22;49686;51.880;5.632;2023-02-22T01:54:15;3.80;99.90
63537;DHT22;49686;51.880;5.632;2023-02-22T01:56:46;3.80;99.90
63537;DHT22;49686;51.880;5.632;2023-02-22T01:59:14;3.80;99.90
63537;DHT22;49686;51.880;5.632;2023-02-22T02:01:41;3.70;99.90
63537;DHT22;49686;51.880;5.632;2023-02-22T02:04:11;3.70;99.90
63537;DHT22;49686;51.880;5.632;2023-02-22T02:06:39;3.70;99.90
63537;DHT22;49686;51.880;5.632;2023-02-22T02:09:10;3.60;99.90
63537;DHT22;49686;51.880;5.632;2023-02-22T02:11:39;3.60;99.90
63537;DHT22;49686;51.880;5.632;2023-02-22T02:14:08;3.60;99.90
63537;DHT22;49686;51.880;5.632;2023-02-22T02:16:39;3.60;99.90
63537;DHT22;49686;51.880;5.632;2023-02-22T02:19:11;3.60;99.90
63537;DHT22;49686;51.880;5.632;2023-02-22T02:27:53;3.60;99.90
63537;DHT22;49686;51.880;5.632;2023-02-22T02:30:48;3.50;99.90
63537;DHT22;49686;51.880;5.632;2023-02-22T02:33:25;3.50;99.90
63537;DHT22;49686;51.880;5.632;2023-02-22T02:35:59;3.50;99.90
63537;DHT22;49686;51.880;5.632;2023-02-22T02:38:32;3.50;99.90
63537;DHT22;49686;51.880;5.632;2023-02-22T02:41:05;3.50;99.90
63537;DHT22;49686;51.880;5.632;2023-02-22T02:43:38;3.60;99.90
63537;DHT22;49686;51.880;5.632;2023-02-22T02:46:09;3.60;99.90
63537;DHT22;49686;51.880;5.632;2023-02-22T02:48:42;3.50;99.90
63537;DHT22;49686;51.880;5.632;2023-02-22T02:51:11;3.40;99.90
63537;DHT22;49686;51.880;5.632;2023-02-22T02:53:42;3.40;99.90
63537;DHT22;49686;51.880;5.632;2023-02-22T02:56:10;3.30;99.90
63537;DHT22;49686;51.880;5.632;2023-02-22T02:58:44;3.30;99.90
63537;DHT22;49686;51.880;5.632;2023-02-22T03:01:12;3.20;99.90
63537;DHT22;49686;51.880;5.632;2023-02-22T03:03:54;3.20;99.90
63537;DHT22;49686;51.880;5.632;2023-02-22T03:06:49;3.20;99.90
63537;DHT22;49686;51.880;5.632;2023-02-22T03:09:26;3.20;99.90
63537;DHT22;49686;51.880;5.632;2023-02-22T03:11:57;3.20;99.90
63537;DHT22;49686;51.880;5.632;2023-02-22T03:14:32;3.20;99.90
63537;DHT22;49686;51.880;5.632;2023-02-22T03:17:10;3.20;99.90
63537;DHT22;49686;51.880;5.632;2023-02-22T03:19:44;3.20;99.90
63537;DHT22;49686;51.880;5.632;2023-02-22T03:22:17;3.20;99.90
63537;DHT22;49686;51.880;5.632;2023-02-22T03:24:49;3.20;99.90
63537;DHT22;49686;51.880;5.632;2023-02-22T03:27:22;3.10;99.90
63537;DHT22;49686;51.880;5.632;2023-02-22T03:29:52;3.10;99.90
63537;DHT22;49686;51.880;5.632;2023-02-22T03:32:24;3.00;99.90
63537;DHT22;49686;51.880;5.632;2023-02-22T03:34:58;3.00;99.90
63537;DHT22;49686;51.880;5.632;2023-02-22T03:37:28;2.90;99.90
63537;DHT22;49686;51.880;5.632;2023-02-22T03:39:59;3.00;99.90
63537;DHT22;49686;51.880;5.632;2023-02-22T03:42:30;3.00;99.90
63537;DHT22;49686;51.880;5.632;2023-02-22T03:45:00;3.10;99.90
63537;DHT22;49686;51.880;5.632;2023-02-22T03:47:29;3.00;99.90
63537;DHT22;49686;51.880;5.632;2023-02-22T03:50:02;3.10;99.90
63537;DHT22;49686;51.880;5.632;2023-02-22T03:52:30;3.00;99.90
63537;DHT22;49686;51.880;5.632;2023-02-22T03:54:57;2.80;99.90
63537;DHT22;49686;51.880;5.632;2023-02-22T03:57:26;2.90;99.90
63537;DHT22;49686;51.880;5.632;2023-02-22T03:59:54;2.90;99.90
63537;DHT22;49686;51.880;5.632;2023-02-22T04:02:21;2.80;99.90
63537;DHT22;49686;51.880;5.632;2023-02-22T04:04:48;2.80;99.90
63537;DHT22;49686;51.880;5.632;2023-02-22T04:07:16;2.80;99.90
63537;DHT22;49686;51.880;5.632;2023-02-22T04:09:43;2.80;99.90
63537;DHT22;49686;51.880;5.632;2023-02-22T04:12:10;2.80;99.90
63537;DHT22;49686;51.880;5.632;2023-02-22T04:14:36;2.80;99.90
63537;DHT22;49686;51.880;5.632;2023-02-22T04:17:03;2.80;99.90
63537;DHT22;49686;51.880;5.632;2023-02-22T04:19:30;2.70;99.90
63537;DHT22;49686;51.880;5.632;2023-02-22T04:21:57;2.70;99.90
63537;DHT22;49686;51.880;5.632;2023-02-22T04:24:25;2.70;99.90
63537;DHT22;49686;51.880;5.632;2023-02-22T04:26:52;2.80;99.90
63537;DHT22;49686;51.880;5.632;2023-02-22T04:29:19;2.80;99.90
63537;DHT22;49686;51.880;5.632;2023-02-22T04:31:46;2.70;99.90
63537;DHT22;49686;51.880;5.632;2023-02-22T04:34:13;2.70;99.90
63537;DHT22;49686;51.880;5.632;2023-02-22T04:36:39;2.70;99.90
63537;DHT22;49686;51.880;5.632;2023-02-22T04:39:06;2.70;99.90
63537;DHT22;49686;51.880;5.632;2023-02-22T04:41:34;2.70;99.90
63537;DHT22;49686;51.880;5.632;2023-02-22T04:44:01;2.70;99.90
63537;DHT22;49686;51.880;5.632;2023-02-22T04:46:28;2.80;99.90
63537;DHT22;49686;51.880;5.632;2023-02-22T04:48:56;2.70;99.90
63537;DHT22;49686;51.880;5.632;2023-02-22T04:51:22;2.80;99.90
63537;DHT22;49686;51.880;5.632;2023-02-22T04:53:49;2.80;99.90
63537;DHT22;49686;51.880;5.632;2023-02-22T04:56:16;2.70;99.90
63537;DHT22;49686;51.880;5.632;2023-02-22T04:58:44;2.70;99.90
63537;DHT22;49686;51.880;5.632;2023-02-22T05:01:11;2.70;99.90
63537;DHT22;49686;51.880;5.632;2023-02-22T05:03:38;2.70;99.90
63537;DHT22;49686;51.880;5.632;2023-02-22T05:06:07;2.80;99.90
63537;DHT22;49686;51.880;5.632;2023-02-22T05:08:34;2.60;99.90
63537;DHT22;49686;51.880;5.632;2023-02-22T05:11:01;2.60;99.90
63537;DHT22;49686;51.880;5.632;2023-02-22T05:13:28;2.60;99.90
63537;DHT22;49686;51.880;5.632;2023-02-22T05:15:56;2.50;99.90
63537;DHT22;49686;51.880;5.632;2023-02-22T05:18:22;2.50;99.90
63537;DHT22;49686;51.880;5.632;2023-02-22T05:20:50;2.50;99.90
63537;DHT22;49686;51.880;5.632;2023-02-22T05:23:17;2.50;99.90
63537;DHT22;49686;51.880;5.632;2023-02-22T05:25:44;2.60;99.90
63537;DHT22;49686;51.880;5.632;2023-02-22T05:28:13;2.50;99.90
63537;DHT22;49686;51.880;5.632;2023-02-22T05:30:40;2.40;99.90
63537;DHT22;49686;51.880;5.632;2023-02-22T05:33:08;2.40;99.90
63537;DHT22;49686;51.880;5.632;2023-02-22T05:35:36;2.40;99.90
63537;DHT22;49686;51.880;5.632;2023-02-22T05:38:03;2.40;99.90
63537;DHT22;49686;51.880;5.632;2023-02-22T05:40:30;2.50;99.90
63537;DHT22;49686;51.880;5.632;2023-02-22T05:42:57;2.50;99.90
63537;DHT22;49686;51.880;5.632;2023-02-22T05:45:26;2.50;99.90
63537;DHT22;49686;51.880;5.632;2023-02-22T05:47:53;2.50;99.90
63537;DHT22;49686;51.880;5.632;2023-02-22T05:50:21;2.50;99.90
63537;DHT22;49686;51.880;5.632;2023-02-22T05:52:49;2.50;99.90
63537;DHT22;49686;51.880;5.632;2023-02-22T05:55:18;2.50;99.90
63537;DHT22;49686;51.880;5.632;2023-02-22T05:57:46;2.50;99.90
63537;DHT22;49686;51.880;5.632;2023-02-22T06:00:16;2.50;99.90
63537;DHT22;49686;51.880;5.632;2023-02-22T06:02:43;2.50;99.90
63537;DHT22;49686;51.880;5.632;2023-02-22T06:05:10;2.50;99.90
63537;DHT22;49686;51.880;5.632;2023-02-22T06:07:39;2.60;99.90
63537;DHT22;49686;51.880;5.632;2023-02-22T06:10:06;2.60;99.90
63537;DHT22;49686;51.880;5.632;2023-02-22T06:12:33;2.60;99.90
63537;DHT22;49686;51.880;5.632;2023-02-22T06:15:00;2.60;99.90
63537;DHT22;49686;51.880;5.632;2023-02-22T06:17:26;2.60;99.90
63537;DHT22;49686;51.880;5.632;2023-02-22T06:19:53;2.70;99.90
63537;DHT22;49686;51.880;5.632;2023-02-22T06:22:20;2.70;99.90
63537;DHT22;49686;51.880;5.632;2023-02-22T06:24:48;2.70;99.90
63537;DHT22;49686;51.880;5.632;2023-02-22T06:27:15;2.60;99.90
63537;DHT22;49686;51.880;5.632;2023-02-22T06:29:44;2.70;99.90
63537;DHT22;49686;51.880;5.632;2023-02-22T06:32:10;2.70;99.90
63537;DHT22;49686;51.880;5.632;2023-02-22T06:34:37;2.70;99.90
63537;DHT22;49686;51.880;5.632;2023-02-22T06:37:04;2.70;99.90
63537;DHT22;49686;51.880;5.632;2023-02-22T06:39:31;2.70;99.90
63537;DHT22;49686;51.880;5.632;2023-02-22T06:41:59;2.70;99.90
63537;DHT22;49686;51.880;5.632;2023-02-22T06:44:26;2.70;99.90
63537;DHT22;49686;51.880;5.632;2023-02-22T06:46:53;2.70;99.90
63537;DHT22;49686;51.880;5.632;2023-02-22T06:49:19;2.80;99.90
63537;DHT22;49686;51.880;5.632;2023-02-22T06:51:46;2.80;99.90
63537;DHT22;49686;51.880;5.632;2023-02-22T06:54:13;2.80;99.90
63537;DHT22;49686;51.880;5.632;2023-02-22T06:56:41;2.80;99.90
63537;DHT22;49686;51.880;5.632;2023-02-22T06:59:09;2.80;99.90
63537;DHT22;49686;51.880;5.632;2023-02-22T07:01:36;2.80;99.90
63537;DHT22;49686;51.880;5.632;2023-02-22T07:04:03;2.80;99.90
63537;DHT22;49686;51.880;5.632;2023-02-22T07:06:29;2.80;99.90
63537;DHT22;49686;51.880;5.632;2023-02-22T07:08:56;2.80;99.90
63537;DHT22;49686;51.880;5.632;2023-02-22T07:11:23;2.90;99.90
63537;DHT22;49686;51.880;5.632;2023-02-22T07:13:50;2.90;99.90
63537;DHT22;49686;51.880;5.632;2023-02-22T07:16:18;2.90;99.90
63537;DHT22;49686;51.880;5.632;2023-02-22T07:18:45;3.00;99.90
63537;DHT22;49686;51.880;5.632;2023-02-22T07:21:12;3.00;99.90
63537;DHT22;49686;51.880;5.632;2023-02-22T07:23:38;3.00;99.90
63537;DHT22;49686;51.880;5.632;2023-02-22T07:26:05;3.00;99.90
63537;DHT22;49686;51.880;5.632;2023-02-22T07:28:32;3.10;99.90
63537;DHT22;49686;51.880;5.632;2023-02-22T07:30:59;3.10;99.90
63537;DHT22;49686;51.880;5.632;2023-02-22T07:33:27;3.10;99.90
63537;DHT22;49686;51.880;5.632;2023-02-22T07:35:54;3.10;99.90
63537;DHT22;49686;51.880;5.632;2023-02-22T07:38:21;3.10;99.90
63537;DHT22;49686;51.880;5.632;2023-02-22T07:40:47;3.20;99.90
63537;DHT22;49686;51.880;5.632;2023-02-22T07:43:15;3.20;99.90
63537;DHT22;49686;51.880;5.632;2023-02-22T07:45:43;3.20;99.90
63537;DHT22;49686;51.880;5.632;2023-02-22T07:48:10;3.20;99.90
63537;DHT22;49686;51.880;5.632;2023-02-22T07:50:39;3.20;99.90
63537;DHT22;49686;51.880;5.632;2023-02-22T07:53:10;3.30;99.90
63537;DHT22;49686;51.880;5.632;2023-02-22T07:55:37;3.30;99.90
63537;DHT22;49686;51.880;5.632;2023-02-22T07:58:05;3.40;99.90
63537;DHT22;49686;51.880;5.632;2023-02-22T08:00:35;3.40;99.90
63537;DHT22;49686;51.880;5.632;2023-02-22T08:03:03;3.40;99.90
63537;DHT22;49686;51.880;5.632;2023-02-22T08:05:31;3.40;99.90
63537;DHT22;49686;51.880;5.632;2023-02-22T08:08:00;3.30;99.90
63537;DHT22;49686;51.880;5.632;2023-02-22T08:10:28;3.40;99.90
63537;DHT22;49686;51.880;5.632;2023-02-22T08:12:55;3.40;99.90
63537;DHT22;49686;51.880;5.632;2023-02-22T08:15:24;3.60;99.90
63537;DHT22;49686;51.880;5.632;2023-02-22T08:17:51;3.50;99.90
63537;DHT22;49686;51.880;5.632;2023-02-22T08:20:18;3.60;99.90
63537;DHT22;49686;51.880;5.632;2023-02-22T08:22:45;3.60;99.90
63537;DHT22;49686;51.880;5.632;2023-02-22T08:25:14;3.60;99.90
63537;DHT22;49686;51.880;5.632;2023-02-22T08:27:41;3.60;99.90
63537;DHT22;49686;51.880;5.632;2023-02-22T08:30:12;3.60;99.90
63537;DHT22;49686;51.880;5.632;2023-02-22T08:32:41;3.60;99.90
63537;DHT22;49686;51.880;5.632;2023-02-22T08:35:08;3.70;99.90
63537;DHT22;49686;51.880;5.632;2023-02-22T08:37:35;3.60;99.90
63537;DHT22;49686;51.880;5.632;2023-02-22T08:40:02;3.70;99.90
63537;DHT22;49686;51.880;5.632;2023-02-22T08:42:32;3.70;99.90
63537;DHT22;49686;51.880;5.632;2023-02-22T08:45:00;3.80;99.90
63537;DHT22;49686;51.880;5.632;2023-02-22T08:47:27;3.80;99.90
63537;DHT22;49686;51.880;5.632;2023-02-22T08:49:55;3.90;99.90
63537;DHT22;49686;51.880;5.632;2023-02-22T08:52:22;4.00;99.90
63537;DHT22;49686;51.880;5.632;2023-02-22T08:54:49;4.00;99.90
63537;DHT22;49686;51.880;5.632;2023-02-22T08:57:15;4.00;99.90
63537;DHT22;49686;51.880;5.632;2023-02-22T08:59:44;4.10;99.90
63537;DHT22;49686;51.880;5.632;2023-02-22T09:02:14;4.10;99.90
63537;DHT22;49686;51.880;5.632;2023-02-22T09:04:41;4.30;99.90
63537;DHT22;49686;51.880;5.632;2023-02-22T09:07:08;4.40;99.90
63537;DHT22;49686;51.880;5.632;2023-02-22T09:09:35;4.50;99.90
63537;DHT22;49686;51.880;5.632;2023-02-22T09:12:02;4.60;99.90
63537;DHT22;49686;51.880;5.632;2023-02-22T09:14:29;4.60;99.90
63537;DHT22;49686;51.880;5.632;2023-02-22T09:16:57;4.80;99.90
63537;DHT22;49686;51.880;5.632;2023-02-22T09:19:24;5.10;99.90
63537;DHT22;49686;51.880;5.632;2023-02-22T09:21:52;5.20;99.90
63537;DHT22;49686;51.880;5.632;2023-02-22T09:24:19;5.00;99.90
63537;DHT22;49686;51.880;5.632;2023-02-22T09:26:46;5.20;99.90
63537;DHT22;49686;51.880;5.632;2023-02-22T09:29:13;5.10;99.90
63537;DHT22;49686;51.880;5.632;2023-02-22T09:31:40;5.10;99.90
63537;DHT22;49686;51.880;5.632;2023-02-22T09:34:08;5.30;99.90
63537;DHT22;49686;51.880;5.632;2023-02-22T09:36:35;5.50;99.90
63537;DHT22;49686;51.880;5.632;2023-02-22T09:39:02;5.50;99.90
63537;DHT22;49686;51.880;5.632;2023-02-22T09:41:33;5.70;99.90
63537;DHT22;49686;51.880;5.632;2023-02-22T09:44:10;5.70;99.90
63537;DHT22;49686;51.880;5.632;2023-02-22T09:46:44;5.80;99.90
63537;DHT22;49686;51.880;5.632;2023-02-22T09:49:20;5.80;99.90
63537;DHT22;49686;51.880;5.632;2023-02-22T09:51:53;6.10;99.90
63537;DHT22;49686;51.880;5.632;2023-02-22T09:54:26;6.10;99.90
63537;DHT22;49686;51.880;5.632;2023-02-22T09:56:56;6.00;99.90
63537;DHT22;49686;51.880;5.632;2023-02-22T09:59:27;6.00;99.90
63537;DHT22;49686;51.880;5.632;2023-02-22T10:01:59;6.00;99.90
63537;DHT22;49686;51.880;5.632;2023-02-22T10:04:38;6.20;99.90
63537;DHT22;49686;51.880;5.632;2023-02-22T10:07:14;6.50;99.90
63537;DHT22;49686;51.880;5.632;2023-02-22T10:09:43;6.70;99.90
63537;DHT22;49686;51.880;5.632;2023-02-22T10:12:22;6.80;99.90
63537;DHT22;49686;51.880;5.632;2023-02-22T10:17:56;6.90;99.90
63537;DHT22;49686;51.880;5.632;2023-02-22T10:20:38;6.90;99.90
63537;DHT22;49686;51.880;5.632;2023-02-22T10:23:16;6.90;99.90
63537;DHT22;49686;51.880;5.632;2023-02-22T10:25:49;6.90;99.90
63537;DHT22;49686;51.880;5.632;2023-02-22T10:28:22;7.20;99.90
63537;DHT22;49686;51.880;5.632;2023-02-22T10:30:52;7.20;99.90
63537;DHT22;49686;51.880;5.632;2023-02-22T10:33:21;7.40;99.90
63537;DHT22;49686;51.880;5.632;2023-02-22T10:35:51;6.90;99.90
63537;DHT22;49686;51.880;5.632;2023-02-22T10:38:20;7.30;99.90
63537;DHT22;49686;51.880;5.632;2023-02-22T10:40:49;7.40;99.90
63537;DHT22;49686;51.880;5.632;2023-02-22T10:43:18;7.60;99.90
63537;DHT22;49686;51.880;5.632;2023-02-22T10:45:45;7.60;99.90
63537;DHT22;49686;51.880;5.632;2023-02-22T10:48:15;7.70;99.90
63537;DHT22;49686;51.880;5.632;2023-02-22T10:50:44;8.10;99.90
63537;DHT22;49686;51.880;5.632;2023-02-22T10:53:13;8.30;99.90
63537;DHT22;49686;51.880;5.632;2023-02-22T10:56:08;8.40;99.90
63537;DHT22;49686;51.880;5.632;2023-02-22T10:58:43;8.30;99.90
63537;DHT22;49686;51.880;5.632;2023-02-22T11:01:27;8.40;99.90
63537;DHT22;49686;51.880;5.632;2023-02-22T11:04:05;8.50;99.90
63537;DHT22;49686;51.880;5.632;2023-02-22T11:06:35;8.60;99.90
63537;DHT22;49686;51.880;5.632;2023-02-22T11:09:09;8.50;99.90
63537;DHT22;49686;51.880;5.632;2023-02-22T11:11:40;8.60;99.90
63537;DHT22;49686;51.880;5.632;2023-02-22T11:14:11;8.70;99.90
63537;DHT22;49686;51.880;5.632;2023-02-22T11:16:41;8.90;99.90
63537;DHT22;49686;51.880;5.632;2023-02-22T11:19:17;8.70;99.90
63537;DHT22;49686;51.880;5.632;2023-02-22T11:21:44;8.50;99.90
63537;DHT22;49686;51.880;5.632;2023-02-22T11:24:14;8.40;99.90
63537;DHT22;49686;51.880;5.632;2023-02-22T11:26:43;8.40;99.90
63537;DHT22;49686;51.880;5.632;2023-02-22T11:29:17;7.90;99.90
63537;DHT22;49686;51.880;5.632;2023-02-22T11:31:45;7.70;99.90
63537;DHT22;49686;51.880;5.632;2023-02-22T11:34:31;7.80;99.90
63537;DHT22;49686;51.880;5.632;2023-02-22T11:37:15;7.80;99.90
63537;DHT22;49686;51.880;5.632;2023-02-22T11:39:43;7.70;99.90
63537;DHT22;49686;51.880;5.632;2023-02-22T11:42:19;8.00;99.90
63537;DHT22;49686;51.880;5.632;2023-02-22T11:44:47;8.00;99.90
63537;DHT22;49686;51.880;5.632;2023-02-22T11:47:14;7.90;99.90
63537;DHT22;49686;51.880;5.632;2023-02-22T11:49:42;8.20;99.90
63537;DHT22;49686;51.880;5.632;2023-02-22T11:52:17;8.40;99.90
63537;DHT22;49686;51.880;5.632;2023-02-22T11:55:06;8.50;99.90
63537;DHT22;49686;51.880;5.632;2023-02-22T11:57:51;8.50;99.90
63537;DHT22;49686;51.880;5.632;2023-02-22T12:00:26;8.50;99.90
63537;DHT22;49686;51.880;5.632;2023-02-22T12:03:19;8.90;99.90
63537;DHT22;49686;51.880;5.632;2023-02-22T12:06:01;9.00;99.90
63537;DHT22;49686;51.880;5.632;2023-02-22T12:08:38;9.00;99.90
63537;DHT22;49686;51.880;5.632;2023-02-22T12:11:13;9.30;99.90
63537;DHT22;49686;51.880;5.632;2023-02-22T12:14:00;9.40;99.90
63537;DHT22;49686;51.880;5.632;2023-02-22T12:16:36;9.30;99.90
63537;DHT22;49686;51.880;5.632;2023-02-22T12:19:11;9.20;99.90
63537;DHT22;49686;51.880;5.632;2023-02-22T12:21:43;9.10;99.90
63537;DHT22;49686;51.880;5.632;2023-02-22T12:24:15;9.10;99.90
63537;DHT22;49686;51.880;5.632;2023-02-22T12:26:49;9.10;99.90
63537;DHT22;49686;51.880;5.632;2023-02-22T12:29:21;9.20;99.90
63537;DHT22;49686;51.880;5.632;2023-02-22T12:31:53;8.80;99.90
63537;DHT22;49686;51.880;5.632;2023-02-22T12:34:28;8.90;99.90
63537;DHT22;49686;51.880;5.632;2023-02-22T12:37:03;9.20;99.90
63537;DHT22;49686;51.880;5.632;2023-02-22T12:39:41;9.10;99.90
63537;DHT22;49686;51.880;5.632;2023-02-22T12:42:25;8.90;99.90
63537;DHT22;49686;51.880;5.632;2023-02-22T12:44:56;9.10;99.90
63537;DHT22;49686;51.880;5.632;2023-02-22T12:47:30;9.20;99.90
63537;DHT22;49686;51.880;5.632;2023-02-22T12:50:02;9.30;99.90
63537;DHT22;49686;51.880;5.632;2023-02-22T12:52:40;8.90;99.90
63537;DHT22;49686;51.880;5.632;2023-02-22T12:55:12;9.00;99.90
63537;DHT22;49686;51.880;5.632;2023-02-22T12:57:46;8.90;99.90
63537;DHT22;49686;51.880;5.632;2023-02-22T13:00:17;8.60;99.90
63537;DHT22;49686;51.880;5.632;2023-02-22T13:02:54;8.80;99.90
63537;DHT22;49686;51.880;5.632;2023-02-22T13:05:23;8.90;99.90
63537;DHT22;49686;51.880;5.632;2023-02-22T13:07:59;9.10;99.90
63537;DHT22;49686;51.880;5.632;2023-02-22T13:10:40;9.10;99.90
63537;DHT22;49686;51.880;5.632;2023-02-22T13:13:16;9.10;99.90
63537;DHT22;49686;51.880;5.632;2023-02-22T13:15:49;9.00;99.90
63537;DHT22;49686;51.880;5.632;2023-02-22T13:18:23;8.90;99.90
63537;DHT22;49686;51.880;5.632;2023-02-22T13:20:54;8.90;99.90
63537;DHT22;49686;51.880;5.632;2023-02-22T13:23:32;8.90;99.90
63537;DHT22;49686;51.880;5.632;2023-02-22T13:26:05;8.90;99.90
63537;DHT22;49686;51.880;5.632;2023-02-22T13:28:40;8.90;99.90
63537;DHT22;49686;51.880;5.632;2023-02-22T13:31:20;8.90;99.90
63537;DHT22;49686;51.880;5.632;2023-02-22T13:33:58;8.80;99.90
63537;DHT22;49686;51.880;5.632;2023-02-22T13:36:35;8.60;99.90
63537;DHT22;49686;51.880;5.632;2023-02-22T13:39:28;8.70;99.90
63537;DHT22;49686;51.880;5.632;2023-02-22T13:42:17;8.70;99.90
63537;DHT22;49686;51.880;5.632;2023-02-22T13:48:02;8.80;99.90
63537;DHT22;49686;51.880;5.632;2023-02-22T13:50:48;8.90;99.90
63537;DHT22;49686;51.880;5.632;2023-02-22T13:53:21;8.70;99.90
63537;DHT22;49686;51.880;5.632;2023-02-22T13:55:52;8.60;99.90
63537;DHT22;49686;51.880;5.632;2023-02-22T13:58:20;8.50;99.90
63537;DHT22;49686;51.880;5.632;2023-02-22T14:00:49;8.50;99.90
63537;DHT22;49686;51.880;5.632;2023-02-22T14:03:36;8.50;99.90
63537;DHT22;49686;51.880;5.632;2023-02-22T14:06:05;8.60;99.90
63537;DHT22;49686;51.880;5.632;2023-02-22T14:08:39;8.70;99.90
63537;DHT22;49686;51.880;5.632;2023-02-22T14:14:12;8.80;99.90
63537;DHT22;49686;51.880;5.632;2023-02-22T14:16:41;9.00;99.90
63537;DHT22;49686;51.880;5.632;2023-02-22T14:19:14;9.10;99.90
63537;DHT22;49686;51.880;5.632;2023-02-22T14:21:56;9.10;99.90
63537;DHT22;49686;51.880;5.632;2023-02-22T14:24:24;9.10;99.90
63537;DHT22;49686;51.880;5.632;2023-02-22T14:26:57;9.20;99.90
63537;DHT22;49686;51.880;5.632;2023-02-22T14:29:25;9.40;99.90
63537;DHT22;49686;51.880;5.632;2023-02-22T14:32:04;9.20;99.90
63537;DHT22;49686;51.880;5.632;2023-02-22T14:34:44;9.00;99.90
63537;DHT22;49686;51.880;5.632;2023-02-22T14:37:15;8.90;99.90
63537;DHT22;49686;51.880;5.632;2023-02-22T14:39:44;8.80;99.90
63537;DHT22;49686;51.880;5.632;2023-02-22T14:42:16;8.70;99.90
63537;DHT22;49686;51.880;5.632;2023-02-22T14:44:53;8.60;99.90
63537;DHT22;49686;51.880;5.632;2023-02-22T14:47:26;8.50;99.90
63537;DHT22;49686;51.880;5.632;2023-02-22T14:49:59;8.50;99.90
63537;DHT22;49686;51.880;5.632;2023-02-22T14:52:30;8.40;99.90
63537;DHT22;49686;51.880;5.632;2023-02-22T14:55:05;8.20;99.90
63537;DHT22;49686;51.880;5.632;2023-02-22T14:57:42;8.30;99.90
63537;DHT22;49686;51.880;5.632;2023-02-22T15:00:15;8.30;99.90
63537;DHT22;49686;51.880;5.632;2023-02-22T15:02:43;8.20;99.90
63537;DHT22;49686;51.880;5.632;2023-02-22T15:05:12;8.10;99.90
63537;DHT22;49686;51.880;5.632;2023-02-22T15:07:50;8.10;99.90
63537;DHT22;49686;51.880;5.632;2023-02-22T15:10:21;8.00;99.90
63537;DHT22;49686;51.880;5.632;2023-02-22T15:12:53;8.10;99.90
63537;DHT22;49686;51.880;5.632;2023-02-22T15:15:22;8.00;99.90
63537;DHT22;49686;51.880;5.632;2023-02-22T15:17:53;8.00;99.90
63537;DHT22;49686;51.880;5.632;2023-02-22T15:20:21;7.90;99.90
63537;DHT22;49686;51.880;5.632;2023-02-22T15:22:50;7.80;99.90
63537;DHT22;49686;51.880;5.632;2023-02-22T15:25:24;7.70;99.90
63537;DHT22;49686;51.880;5.632;2023-02-22T15:27:53;7.70;99.90
63537;DHT22;49686;51.880;5.632;2023-02-22T15:30:26;7.80;99.90
63537;DHT22;49686;51.880;5.632;2023-02-22T15:32:55;7.80;99.90
63537;DHT22;49686;51.880;5.632;2023-02-22T15:35:31;7.70;99.90
63537;DHT22;49686;51.880;5.632;2023-02-22T15:38:00;7.70;99.90
63537;DHT22;49686;51.880;5.632;2023-02-22T15:40:27;7.70;99.90
63537;DHT22;49686;51.880;5.632;2023-02-22T15:42:54;7.70;99.90
63537;DHT22;49686;51.880;5.632;2023-02-22T15:45:22;7.60;99.90
63537;DHT22;49686;51.880;5.632;2023-02-22T15:47:50;7.50;99.90
63537;DHT22;49686;51.880;5.632;2023-02-22T15:50:22;7.50;99.90
63537;DHT22;49686;51.880;5.632;2023-02-22T15:52:52;7.50;99.90
63537;DHT22;49686;51.880;5.632;2023-02-22T15:55:21;7.50;99.90
63537;DHT22;49686;51.880;5.632;2023-02-22T15:57:52;7.50;99.90
63537;DHT22;49686;51.880;5.632;2023-02-22T16:00:22;7.50;99.90
63537;DHT22;49686;51.880;5.632;2023-02-22T16:02:49;7.50;99.90
63537;DHT22;49686;51.880;5.632;2023-02-22T16:05:17;7.40;99.90
63537;DHT22;49686;51.880;5.632;2023-02-22T16:07:48;7.40;99.90
63537;DHT22;49686;51.880;5.632;2023-02-22T16:10:20;7.40;99.90
63537;DHT22;49686;51.880;5.632;2023-02-22T16:12:48;7.40;99.90
63537;DHT22;49686;51.880;5.632;2023-02-22T16:15:17;7.30;99.90
63537;DHT22;49686;51.880;5.632;2023-02-22T16:17:44;7.20;99.90
63537;DHT22;49686;51.880;5.632;2023-02-22T16:20:32;7.20;99.90